Tiempo atmosférico en la estación meteorológica de La Pinilla, estación de esquí, Segovia (1860 m.)



Fecha
DESCASC
Temp. máxima en grados centígrados (hora)
DESCASC
Temp. mínima en grados centígrados (hora)
DESCASC
Temp. media en grados centígrados
DESCASC
Racha de viento máxima en m/sg (hora)
DESCASC
Velocidad máxima media en intervalos de 10 minutos(hora)
DESCASC
Precipitaciones diarias en mm
DESCASC
Precipitaciones de 00:00 a 06:00 en mm
DESCASC
Precipitaciones de 06:00 a 12:00 en mm
DESCASC
Precipitaciones de 12:00 a 18:00 en mm
DESCASC
Precipitaciones de 18:00 a 24:00 en mm
DESCASC
20-09-2018 21.7 (13:30) 13.6 (08:00) 17.7 11.94 (17:40) 5.83 (04:10) -- -- -- -- --
19-09-2018 20.3 (17:10) 11.8 (06:00) 16 6.67 (19:20) 5.28 (20:00) -- -- -- -- --
18-09-2018 20 (15:00) 12.2 (00:00) 16.1 17.22 (00:10) 13.06 (00:10) -- -- -- -- --
17-09-2018 21.8 (16:20) 12 (23:59) 16.9 16.39 (23:50) 13.61 (23:50) -- -- -- -- --
16-09-2018 21.9 (16:10) 12.3 (00:00) 17.1 10 (00:10) 6.11 (21:30) -- -- -- -- --
15-09-2018 20.7 (18:20) 13.1 (00:00) 16.9 18.61 (14:20) 11.67 (23:10) -- -- -- -- --
14-09-2018 22.1 (17:20) 12.4 (00:00) 17.3 8.06 (17:20) 4.17 (23:40) -- -- -- -- --
13-09-2018 21.5 (17:20) 12.4 (00:00) 16.9 8.89 (15:10) 3.61 (13:10) -- -- -- -- --
12-09-2018 20.3 (14:40) 11.4 (00:00) 15.8 11.39 (01:00) 8.89 (00:10) -- -- -- -- --
11-09-2018 20.8 (15:30) 11 (00:00) 15.9 16.11 (23:10) 10.83 (06:20) -- -- -- -- --
10-09-2018 20.1 (17:00) 10.2 (00:00) 15.2 10.83 (23:20) 9.17 (23:59) -- -- -- -- --
09-09-2018 18.8 (16:40) 8.6 (00:00) 13.7 11.67 (00:30) 7.5 (00:10) -- -- -- -- --
08-09-2018 17.2 (12:20) 9.8 (00:00) 13.5 17.78 (02:40) 12.78 (02:10) -- -- -- -- --
07-09-2018 19.1 (16:00) 9.2 (00:00) 14.2 16.11 (22:50) 11.67 (22:50) -- -- -- -- --
06-09-2018 15.5 (16:30) 9.2 (00:00) 12.3 10 (23:59) 7.78 (23:40) -- -- -- -- --
05-09-2018 17.7 (13:50) 9.7 (00:00) 13.7 15.28 (13:50) 6.39 (13:50) -- -- -- -- --
04-09-2018 22 (16:20) 13.1 (00:00) 17.6 13.06 (10:10) 8.61 (11:00) -- -- -- -- --
03-09-2018 23.7 (16:00) 13.7 (00:00) 18.7 18.61 (06:50) 10.56 (10:40) -- -- -- -- --
02-09-2018 25.6 (14:30) 16.8 (00:00) 21.2 13.33 (14:50) 5.28 (23:59) -- -- -- -- --
01-09-2018 24.7 (17:20) 13.1 (00:00) 18.9 9.17 (15:50) 4.72 (15:50) -- -- -- -- --
31-08-2018 22.2 (15:50) 12.4 (00:00) 17.3 10 (15:40) 5 (19:40) -- -- -- -- --
30-08-2018 23.4 (15:50) 14.3 (00:00) 18.8 12.5 (03:50) 9.72 (03:50) -- -- -- -- --
29-08-2018 21.4 (16:00) 13.2 (00:00) 17.3 14.72 (23:20) 10.56 (23:30) -- -- -- -- --
28-08-2018 23.3 (15:30) 16.5 (00:00) 19.9 19.44 (06:20) 8.89 (05:10) -- -- -- -- --
27-08-2018 27.1 (17:10) 14.9 (00:00) 21 9.72 (19:30) 5.83 (18:00) -- -- -- -- --
26-08-2018 23.2 (17:10) 10.9 (00:00) 17.1 10 (17:20) 4.72 (18:30) -- -- -- -- --
25-08-2018 20.7 (16:50) 11.1 (00:00) 15.9 11.94 (17:30) 5 (15:30) -- -- -- -- --
24-08-2018 20.8 (15:10) 12.1 (00:00) 16.4 12.78 (17:10) 6.11 (01:50) -- -- -- -- --
23-08-2018 23.3 (15:40) 14.1 (00:00) 18.7 12.5 (18:30) 5.56 (18:50) -- -- -- -- --

Gráficas

Temp. máximas Temp. mínimas Temp. medias Precipitaciones Rachas de viento máximas Velocidades máximas media en intervalos de 10 minutos

Datos horarios

Fecha y hora oficial Temperatura (ºC) Velocidad del viento (km/h) Dirección del viento Racha (km/h) Dirección de racha Precipitación (mm) Presión (hPa) Tendencia (hPa) Humedad (%)
2018-09-21 23:00:00 14.1 9 Sudoeste 13 Sudoeste 0 829.4 0.8 59
2018-09-21 22:00:00 14.4 6 Sudoeste 9 Sudoeste 0 829.4 1 61
2018-09-21 21:00:00 15 4 Sudoeste 9 Nordeste 0 829 0.8 58
2018-09-21 20:00:00 16.2 3 Noroeste 13 Oeste 0 828.6 0.5 54
2018-09-21 19:00:00 18 5 Este 18 Oeste 0 828.4 0.4 51
2018-09-21 18:00:00 18.4 9 Norte 32 Noroeste 0 828.2 0 48
2018-09-21 17:00:00 20.1 7 Noroeste 28 Nordeste 0 828.1 -0.4 46
2018-09-21 16:00:00 19.9 13 Noroeste 32 Norte 0 828 -0.5 44
2018-09-21 15:00:00 19.1 13 Noroeste 30 Norte 0 828.2 -0.3 48
2018-09-21 14:00:00 18.9 13 Norte 23 Noroeste 0 828.5 0.3 50
2018-09-21 13:00:00 19 5 Nordeste 18 Norte 0 828.5 0.8 46
2018-09-21 12:00:00 17.8 4 Nordeste 20 Oeste 0 828.5 0.8 54
2018-09-21 11:00:00 17.5 3 Sudeste 10 Sudoeste 0 828.2 1.1 53
2018-09-21 10:00:00 13.2 8 Sudoeste 15 Sudoeste 0 827.7 1.5 63
2018-09-21 09:00:00 12.8 7 Sudoeste 13 Sur 0 827.7 1.1 62
2018-09-21 08:00:00 12.5 3 Sudoeste 24 Sur 0 827.1 0.4 62
2018-09-21 07:00:00 13 9 Sur 21 Sur 0 826.2 -0.6 65
2018-09-21 06:00:00 13.6 9 Sudoeste 19 Sudoeste 0 826.6 -0.4 59
2018-09-21 05:00:00 13.5 8 Sudoeste 15 Sudoeste 0 826.7 -0.5 59
2018-09-21 04:00:00 13.5 5 Sudoeste 16 Sudoeste 0 826.8 -0.4 57
2018-09-21 03:00:00 14.4 6 Sur 16 Sudoeste 0 827 -0.3 55
2018-09-21 02:00:00 14.7 11 Sudoeste 24 Sur 0 827.2 -0.3 64
2018-09-21 01:00:00 16.1 8 Sur 26 Noroeste 0 827.2 -0.3 58
2018-09-21 00:00:00 16.4 11 Sur 25 Sudeste 0 827.3 0.1 56
2018-09-20 23:00:00 16.4 13 Sur 30 Sur 0 827.5 0.5 54
2018-09-20 22:00:00 16.6 10 Sur 25 Sur 0 827.5 0.1 53
2018-09-20 21:00:00 17.3 14 Sur 31 Sur 0 827.2 -0.3 50
2018-09-20 20:00:00 17.6 13 Sur 27 Sur 0 827 -0.5 47
2018-09-20 19:00:00 16.5 8 Sudeste 24 Noroeste 0 827.4 -0.3 50
2018-09-20 18:00:00 17.3 7 Sudeste 43 Noroeste 0 827.5 -0.4 53
2018-09-20 17:00:00 19.7 21 Sur 35 Sur 0 827.5 -0.9 49
2018-09-20 16:00:00 19.3 15 Sur 38 Oeste 0 827.7 -1 48
2018-09-20 15:00:00 20.9 7 Sur 27 Sur 0 827.9 -1 44
2018-09-20 14:00:00 19.2 13 Noroeste 34 Norte 0 828.4 -0.6 51
2018-09-20 13:00:00 21.1 6 Sudeste 29 Norte 0 828.7 0 42
2018-09-20 12:00:00 20.6 5 Noroeste 16 Nordeste 0 828.9 0.4 46
2018-09-20 11:00:00 19.4 5 Sudeste 20 Sudoeste 0 829 0.6 48
2018-09-20 10:00:00 16.1 10 Sur 19 Sudoeste 0 828.7 0.3 52
2018-09-20 09:00:00 14.8 10 Sudoeste 17 Sudoeste 0 828.5 0.2 60
2018-09-20 08:00:00 13.6 15 Sur 21 Sur 0 828.4 -0.2 68
2018-09-20 07:00:00 14.1 16 Sur 21 Sur 0 828.4 -0.3 66
2018-09-20 06:00:00 13.9 16 Sur 21 Sur 0 828.3 -0.6 68
2018-09-20 05:00:00 14.8 18 Sur 27 Sudoeste 0 828.6 -0.5 65
2018-09-20 04:00:00 14.9 20 Sur 23 Sur 0 828.7 -0.7 65
2018-09-20 03:00:00 15 19 Sur 23 Sur 0 828.9 -0.7 64
2018-09-20 02:00:00 14.6 18 Sur 23 Sur 0 829.1 -0.4 65
2018-09-20 01:00:00 14.6 9 Sur 14 Sur 0 829.4 0.1 64
2018-09-20 00:00:00 14.3 8 Sur 12 Sur 0 829.6 0.7 67
2018-09-19 23:00:00 14.4 8 Sur 14 Sur 0 829.5 0.8 68
2018-09-19 22:00:00 15 10 Sur 18 Sur 0 829.3 0.6 57
2018-09-19 21:00:00 14.8 11 Sur 23 Sur 0 828.9 0.4 65
2018-09-19 20:00:00 16.8 19 Sur 24 Sudoeste 0 828.7 0.3 63
2018-09-19 19:00:00 17.8 3 Sudoeste 15 Sur 0 828.7 -0.2 59
2018-09-19 18:00:00 18.2 9 Sur 23 Sudoeste 0 828.5 -0.6 58
2018-09-19 17:00:00 19.9 4 Sur 20 Nordeste 0 828.4 -0.9 51
2018-09-19 16:00:00 18.5 5 Sudeste 12 Norte 0 828.9 -0.6 52
2018-09-19 15:00:00 18.9 4 Nordeste 12 Este 0 829.1 -0.3 57
2018-09-19 14:00:00 16.9 5 Sudeste 8 Este 0 829.3 0.3 61
2018-09-19 13:00:00 16.3 3 Nordeste 5 Nordeste 0 829.5 1 66
2018-09-19 12:00:00 16.5 0 Calma 8 Nordeste 0 829.4 1.6 66
2018-09-19 11:00:00 17.2 4 Sudeste 10 Sur 0 829 1.6 60
2018-09-19 10:00:00 13.4 8 Sudeste 14 Sur 0 828.5 1.4 70
2018-09-19 09:00:00 13.2 12 Sudoeste 17 Sur 0 827.8 0.7 69
2018-09-19 08:00:00 13 13 Sur 16 Sur 0 827.4 0.1 70
2018-09-19 07:00:00 12.6 7 Sudoeste 13 Sudeste 0 827.1 -0.1 72
2018-09-19 06:00:00 11.8 7 Sudoeste 11 Sudoeste 0 827.1 -0.1 76
2018-09-19 05:00:00 12.7 4 Sudoeste 17 Sur 0 827.3 0 72
2018-09-19 04:00:00 13 9 Sudoeste 17 Sudoeste 0 827.2 -0.1 72
2018-09-19 03:00:00 13 10 Sur 14 Sudoeste 0 827.2 -0.1 70
2018-09-19 02:00:00 13.1 6 Sudoeste 10 Sudoeste 0 827.3 0.1 71
2018-09-19 01:00:00 13.3 8 Sur 14 Sur 0 827.3 0.2 72
2018-09-19 00:00:00 14.7 8 Sudeste 14 Sur 0 827.3 1.1 67
2018-09-18 23:00:00 13.9 6 Sur 18 Sur 0 827.2 1.2 68
2018-09-18 22:00:00 13.6 7 Sur 28 Noroeste 0 827.1 1.7 80
2018-09-18 21:00:00 14.1 6 Sur 23 Sur 0 826.2 1.1 74
2018-09-18 20:00:00 15.4 12 Sudoeste 30 Sur 0 826 1.1 65
2018-09-18 19:00:00 15.7 10 Sudeste 24 Nordeste 0 825.4 0.4 61
2018-09-18 18:00:00 19.2 6 Este 18 Nordeste 0 825.1 0.1 56
2018-09-18 17:00:00 18.8 9 Norte 33 Norte 0 824.9 -0.6 52
2018-09-18 16:00:00 18.4 13 Norte 31 Norte 0 825 -0.5 48
2018-09-18 15:00:00 20 6 Norte 28 Norte 0 825 -0.5 48
2018-09-18 14:00:00 18.6 8 Norte 25 Norte 0 825.5 0.2 53
2018-09-18 13:00:00 18.7 4 Noroeste 21 Noroeste 0 825.5 0.8 56
2018-09-18 12:00:00 17 8 Norte 20 Norte 0 825.5 1.2 61
2018-09-18 11:00:00 16.5 6 Nordeste 14 Nordeste 0 825.3 1.4 65
2018-09-18 10:00:00 13.3 6 Sudeste 16 Oeste 0 824.7 1 72
2018-09-18 09:00:00 14.1 7 Sudoeste 15 Sudoeste 0 824.3 0.5 66
2018-09-18 08:00:00 13.1 6 Sudoeste 14 Sur 0 823.9 0.1 74
2018-09-18 07:00:00 13.3 5 Sur 19 Sudoeste 0 823.7 0 72
2018-09-18 06:00:00 13.3 9 Sur 26 Sur 0 823.8 -0.1 72
2018-09-18 05:00:00 14 11 Sur 24 Noroeste 0 823.8 0 68
2018-09-18 04:00:00 14.5 6 Sudeste 16 Sur 0 823.7 -0.1 62
2018-09-18 03:00:00 14 17 Sur 49 Sur 0 823.9 0.1 59
2018-09-18 02:00:00 14.1 28 Sur 56 Sur 0 823.8 -0.5 57
2018-09-18 01:00:00 12.9 44 Sur 62 Sudeste 0 823.8 -0.5 73
2018-09-18 00:00:00 12.2 48 Sur 59 Sur 0 823.8 -0.2 83
2018-09-17 23:00:00 13.4 44 Sur 53 Sur 0 824.3 0.3 78
2018-09-17 22:00:00 16.1 23 Sur 39 Sur 0 824.3 0.6 57
2018-09-17 21:00:00 15.9 5 Sur 10 Sudeste 0 824 0 57
2018-09-17 20:00:00 16.4 5 Sudeste 22 Sudoeste 0 824 -0.3 57
2018-09-17 19:00:00 19 14 Sudoeste 34 Oeste 0 823.7 -1.3 41
2018-09-17 18:00:00 21.3 9 Sur 38 Sudoeste 0 824 -1.4 34
2018-09-17 17:00:00 21.2 12 Sudoeste 36 Sudoeste 0 824.3 -1.6 39
2018-09-17 16:00:00 21.2 17 Sudoeste 38 Sudeste 0 825 -1.3 35
2018-09-17 15:00:00 19.5 11 Sur 38 Oeste 0 825.4 -1.2 48
2018-09-17 14:00:00 18.8 14 Sudeste 44 Sudeste 0 825.9 -0.7 50
2018-09-17 13:00:00 19.4 9 Sudeste 38 Sudeste 0 826.3 -0.3 52
2018-09-17 12:00:00 19.1 16 Sur 31 Sur 0 826.6 -0.1 51
2018-09-17 11:00:00 17.8 12 Sur 35 Sudeste 0 826.6 0 54
2018-09-17 10:00:00 15.6 19 Sur 41 Sur 0 826.6 0.1 60
2018-09-17 09:00:00 15.2 20 Sur 35 Sudoeste 0 826.7 0.2 58
2018-09-17 08:00:00 14.6 25 Sur 37 Sur 0 826.6 -0.4 58
2018-09-17 07:00:00 14.3 29 Sur 43 Sur 0 826.5 -0.8 58
2018-09-17 06:00:00 14.3 33 Sur 44 Sur 0 826.5 -1 57
2018-09-17 05:00:00 14.7 22 Sur 37 Sudeste 0 827 -0.7 61
2018-09-17 04:00:00 15.3 16 Sur 36 Sudeste 0 827.3 -0.7 58
2018-09-17 03:00:00 15.4 14 Sur 20 Sur 0 827.5 -0.7 58
2018-09-17 02:00:00 15.4 14 Sur 20 Sur 0 827.7 -0.6 57
2018-09-17 01:00:00 15.2 14 Sur 18 Sur 0 828 -0.3 59
2018-09-17 00:00:00 14.5 11 Sur 15 Sur 0 828.2 0.2 60
2018-09-16 23:00:00 15.8 10 Sur 19 Sudeste 0 828.3 0.4 53
2018-09-16 22:00:00 16.2 12 Sur 26 Sur 0 828.3 0.4 54
2018-09-16 21:00:00 16.7 15 Sur 23 Sur 0 828 0.3 55
2018-09-16 20:00:00 17.2 15 Sur 25 Sur 0 827.9 -0.1 55
2018-09-16 19:00:00 19.3 3 Nordeste 12 Nordeste 0 827.9 -0.1 42
2018-09-16 18:00:00 21.5 4 Oeste 18 Norte 0 827.7 -0.6 36
2018-09-16 17:00:00 21.2 8 Norte 19 Nordeste 0 828 -0.6 38
2018-09-16 16:00:00 21.1 10 Nordeste 23 Norte 0 828 -0.9 37
2018-09-16 15:00:00 20 13 Norte 29 Norte 0 828.3 -0.6 41
2018-09-16 14:00:00 20.6 5 Noroeste 20 Norte 0 828.6 -0.2 40
2018-09-16 13:00:00 19.7 5 Este 16 Nordeste 0 828.9 0.3 48
2018-09-16 12:00:00 19.5 6 Nordeste 13 Norte 0 828.9 0.4 49
2018-09-16 11:00:00 18.1 7 Sudeste 14 Sudoeste 0 828.8 0.7 51
2018-09-16 10:00:00 14.2 12 Sudoeste 17 Sudoeste 0 828.6 0.8 65
2018-09-16 09:00:00 13.1 11 Sudoeste 18 Sudoeste 0 828.5 1 70
2018-09-16 08:00:00 12.3 11 Sur 17 Sudoeste 0 828.1 0.7 73
2018-09-16 07:00:00 13.1 9 Sur 17 Sur 0 827.8 0.3 68
2018-09-16 06:00:00 13.3 9 Sur 17 Sudoeste 0 827.5 -0.5 68
2018-09-16 05:00:00 14.5 8 Sudoeste 19 Sur 0 827.4 -0.9 63
2018-09-16 04:00:00 14.6 8 Sur 24 Sudoeste 0 827.5 -0.8 62
2018-09-16 03:00:00 14.7 12 Sur 33 Sur 0 828 -0.3 63
2018-09-16 02:00:00 15.3 12 Sur 32 Sur 0 828.3 0.2 59
2018-09-16 01:00:00 15.6 16 Sur 36 Sudoeste 0 828.3 0.2 57
2018-09-16 00:00:00 14.4 24 Sur 56 Sur 0 828.3 0.6 68
2018-09-15 23:00:00 13.9 39 Sur 49 Sur 0 828.1 0.6 75
2018-09-15 22:00:00 15.9 24 Sur 29 Sur 0 828.1 1 60
2018-09-15 21:00:00 15.7 17 Sur 22 Sur 0 827.7 0.7 58
2018-09-15 20:00:00 16.4 5 Sudeste 10 Sur 0 827.5 0.5 56
2018-09-15 19:00:00 18.6 7 Sur 18 Sur 0 827.1 -0.3 49
2018-09-15 18:00:00 20.3 6 Sur 24 Sur 0 827 -0.6 45
2018-09-15 17:00:00 17.2 16 Sur 25 Sur 0 827 -0.8 57
2018-09-15 16:00:00 15.9 18 Sur 31 Sur 0 827.4 -0.5 68
2018-09-15 15:00:00 15 14 Sur 67 Sudeste 0 827.6 -0.5 75
2018-09-15 14:00:00 18 2 Norte 8 Oeste 0 827.8 0 61
2018-09-15 13:00:00 17.2 5 Nordeste 10 Nordeste 0 827.9 0.5 65
2018-09-15 12:00:00 17.7 7 Norte 15 Norte 0 828.1 1.1 61
2018-09-15 11:00:00 18.2 5 Sudeste 13 Sur 0 827.8 1.1 56
2018-09-15 10:00:00 14.5 10 Sur 24 Sudoeste 0 827.4 0.9 69
2018-09-15 09:00:00 14.5 23 Sur 33 Sur 0 827 0.7 67
2018-09-15 08:00:00 14.5 25 Sur 30 Sur 0 826.7 0.3 68
2018-09-15 07:00:00 14.6 18 Sur 23 Sur 0 826.5 0 61
2018-09-15 06:00:00 14.6 19 Sur 25 Sur 0 826.3 -0.7 60
2018-09-15 05:00:00 14.8 23 Sur 36 Sur 0 826.4 -1 66
2018-09-15 04:00:00 15.7 22 Sur 32 Sur 0 826.5 -0.9 61
2018-09-15 03:00:00 16.2 26 Sur 38 Sudeste 0 827 -0.4 60
2018-09-15 02:00:00 16.3 26 Sudeste 32 Sudeste 0 827.4 0.1 54
2018-09-15 01:00:00 15.4 23 Sudeste 35 Sudeste 0 827.4 0.1 52
2018-09-15 00:00:00 15.3 13 Sur 19 Sudeste 0 827.4 0.2 51
2018-09-14 23:00:00 15.2 11 Sur 17 Sudeste 0 827.3 0.4 51
2018-09-14 22:00:00 16.5 9 Este 17 Este 0 827.3 0.6 46
2018-09-14 21:00:00 15.9 7 Sudeste 13 Sur 0 827.2 0.4 50
2018-09-14 20:00:00 17.8 3 Este 17 Norte 0 826.9 0.1 44
2018-09-14 19:00:00 20 9 Norte 24 Norte 0 826.7 -0.5 39
2018-09-14 18:00:00 21.6 15 Norte 29 Norte 0 826.8 -0.6 36
2018-09-14 17:00:00 21.2 7 Norte 23 Noroeste 0 826.8 -0.9 34
2018-09-14 16:00:00 20.4 8 Norte 23 Noroeste 0 827.2 -0.6 35
2018-09-14 15:00:00 21.4 10 Oeste 26 Norte 0 827.4 -0.5 31
2018-09-14 14:00:00 20.5 8 Norte 26 Norte 0 827.7 0.2 37
2018-09-14 13:00:00 19.9 4 Nordeste 21 Norte 0 827.8 0.6 40
2018-09-14 12:00:00 20.3 4 Noroeste 17 Nordeste 0 827.9 0.9 38
2018-09-14 11:00:00 18.8 8 Sudeste 13 Sudeste 0 827.5 0.8 45
2018-09-14 10:00:00 14.3 8 Sudeste 12 Sudeste 0 827.2 0.7 58
2018-09-14 09:00:00 13.4 4 Sur 8 Sudoeste 0 827 0.5 62
2018-09-14 08:00:00 13.2 5 Sudoeste 10 Sur 0 826.7 0.1 59
2018-09-14 07:00:00 12.6 4 Sudoeste 9 Sudoeste 0 826.5 -0.4 57
2018-09-14 06:00:00 13.2 4 Sur 9 Sudeste 0 826.5 -0.6 54
2018-09-14 05:00:00 12.9 4 Sur 10 Sudoeste 0 826.6 -0.8 63
2018-09-14 04:00:00 13.5 3 Sur 13 Sur 0 826.9 -0.8 61
2018-09-14 03:00:00 12.9 7 Sur 10 Sur 0 827.1 -0.6 65
2018-09-14 02:00:00 14.1 5 Sudoeste 10 Sur 0 827.4 -0.3 57
2018-09-14 01:00:00 13.4 6 Sur 10 Sur 0 827.7 -0.1 60
2018-09-14 00:00:00 13.8 6 Sur 11 Sur 0 827.7 0.3 64
2018-09-13 23:00:00 13.8 6 Sur 16 Sur 0 827.7 0.6 63
2018-09-13 22:00:00 14.7 7 Sudeste 11 Sudeste 0 827.8 0.5 58
2018-09-13 21:00:00 15.6 3 Sur 10 Noroeste 0 827.4 0 53
2018-09-13 20:00:00 18.2 4 Noroeste 15 Noroeste 0 827.1 -0.5 42
2018-09-13 19:00:00 19.7 7 Norte 21 Norte 0 827.3 -0.7 36
2018-09-13 18:00:00 20.3 11 Norte 21 Norte 0 827.4 -0.9 36
2018-09-13 17:00:00 20.6 10 Norte 24 Norte 0 827.6 -1.1 36
2018-09-13 16:00:00 20.3 10 Noroeste 32 Norte 0 828 -0.8 35
2018-09-13 15:00:00 20 12 Norte 31 Nordeste 0 828.3 -0.5 42
2018-09-13 14:00:00 19.9 13 Norte 27 Norte 0 828.7 0.1 43
2018-09-13 13:00:00 19.2 8 Norte 22 Norte 0 828.8 0.6 50
2018-09-13 12:00:00 18.3 9 Norte 17 Norte 0 828.8 0.8 50
2018-09-13 11:00:00 18.3 4 Este 14 Sudeste 0 828.6 0.7 54
2018-09-13 10:00:00 14.8 10 Sudeste 15 Sudeste 0 828.2 0.4 63
2018-09-13 09:00:00 12.8 2 Sur 6 Sudeste 0 828 0.2 67
2018-09-13 08:00:00 12.8 4 Sur 9 Oeste 0 827.9 -0.1 63
2018-09-13 07:00:00 13.8 3 Noroeste 17 Oeste 0 827.8 -0.5 59
2018-09-13 06:00:00 13.8 9 Sudoeste 19 Norte 0 827.8 -1 58
2018-09-13 05:00:00 14.9 5 Noroeste 14 Norte 0 828 -0.9 55
2018-09-13 04:00:00 14.3 3 Sur 7 Sur 0 828.3 -1 58
2018-09-13 03:00:00 13.6 3 Sur 9 Sur 0 828.8 -0.8 62
2018-09-13 02:00:00 13.6 4 Sur 9 Sur 0 828.9 -0.7 63
2018-09-13 01:00:00 14 3 Sur 9 Sur 0 829.3 -0.1 61
2018-09-13 00:00:00 14.7 4 Sudeste 10 Nordeste 0 829.6 0.6 58
2018-09-12 23:00:00 15.4 3 Este 10 Sudeste 0 829.6 0.8 56
2018-09-12 22:00:00 15.6 4 Sudeste 9 Sudeste 0 829.4 0.6 57
2018-09-12 21:00:00 16.1 2 Este 8 Sudeste 0 829 0.1 55
2018-09-12 20:00:00 17.3 2 Nordeste 14 Nordeste 0 828.8 -0.1 49
2018-09-12 19:00:00 18.5 6 Norte 18 Nordeste 0 828.8 -0.6 46
2018-09-12 18:00:00 18 9 Norte 25 Norte 0 828.9 -0.9 49
2018-09-12 17:00:00 19.3 11 Norte 22 Norte 0 828.9 -1.3 46
2018-09-12 16:00:00 17.9 9 Norte 21 Norte 0 829.4 -0.9 55
2018-09-12 15:00:00 18.3 12 Norte 26 Norte 0 829.8 -0.5 51
2018-09-12 14:00:00 18.1 10 Nordeste 24 Norte 0 830.2 0.2 54
2018-09-12 13:00:00 17.4 10 Norte 19 Norte 0 830.3 0.9 57
2018-09-12 12:00:00 17.5 5 Oeste 15 Oeste 0 830.3 1.2 60
2018-09-12 11:00:00 16 7 Noroeste 21 Oeste 0 830 1.1 63
2018-09-12 10:00:00 14.1 6 Sur 13 Sudoeste 0 829.4 0.8 71
2018-09-12 09:00:00 11.9 9 Sur 13 Sur 0 829.1 0.5 76
2018-09-12 08:00:00 11.9 4 Sudoeste 10 Sur 0 828.9 0.2 71
2018-09-12 07:00:00 12.5 4 Sudoeste 14 Sur 0 828.6 -0.2 71
2018-09-12 06:00:00 12.2 5 Sudoeste 11 Sudoeste 0 828.6 -0.2 70
2018-09-12 05:00:00 12.2 7 Sudoeste 15 Sudeste 0 828.7 -0.3 72
2018-09-12 04:00:00 12.1 8 Sur 13 Sudeste 0 828.8 -0.7 73
2018-09-12 03:00:00 12 9 Sur 20 Sur 0 828.8 -0.7 70
2018-09-12 02:00:00 11.7 8 Sur 40 Sur 0 829 -0.5 74
2018-09-12 01:00:00 12.2 31 Sur 41 Sudoeste 0 829.5 0.2 74
2018-09-12 00:00:00 12.6 31 Sur 58 Sur 0 829.5 0.5 73
2018-09-11 23:00:00 12 29 Sur 53 Sudeste 0 829.5 0.9 79
2018-09-11 22:00:00 13.2 22 Sudeste 41 Sur 0 829.3 0.2 64
2018-09-11 21:00:00 14 18 Sur 31 Sur 0 829 0 61
2018-09-11 20:00:00 12.2 25 Sur 46 Sudeste 0 828.6 -0.6 76
2018-09-11 19:00:00 13 28 Sudeste 41 Sur 0 829.1 -0.4 81
2018-09-11 18:00:00 13.6 22 Sudeste 42 Sur 0 829 -0.9 72
2018-09-11 17:00:00 18.1 8 Este 28 Sudoeste 0 829.2 -1.2 49
2018-09-11 16:00:00 19.9 11 Sudoeste 33 Sur 0 829.5 -1.1 44
2018-09-11 15:00:00 19.4 11 Norte 30 Nordeste 0 829.9 -0.9 44
2018-09-11 14:00:00 18 9 Oeste 21 Oeste 0 830.4 -0.2 50
2018-09-11 13:00:00 19.3 5 Sudeste 19 Este 0 830.6 0.4 43
2018-09-11 12:00:00 17.4 10 Nordeste 31 Sur 0 830.8 0.9 49
2018-09-11 11:00:00 15.7 21 Sur 37 Sur 0 830.6 1.1 59
2018-09-11 10:00:00 13.4 32 Sur 45 Sur 0 830.2 0.9 72
2018-09-11 09:00:00 12.3 37 Sur 50 Sur 0 829.9 0.5 77
2018-09-11 08:00:00 12.7 37 Sudeste 52 Sudeste 0 829.5 -0.2 66
2018-09-11 07:00:00 13.1 33 Sudeste 52 Sudeste 0 829.3 -0.5 68
2018-09-11 06:00:00 12.4 38 Sur 44 Sur 0 829.4 -0.6 80
2018-09-11 05:00:00 13.4 32 Sur 41 Sur 0 829.7 -0.4 68
2018-09-11 04:00:00 13.7 30 Sur 40 Sur 0 829.8 -0.5 64
2018-09-11 03:00:00 13.9 26 Sur 42 Sudeste 0 830 -0.5 58
2018-09-11 02:00:00 13.8 27 Sur 37 Sur 0 830.1 -0.8 70
2018-09-11 01:00:00 14.5 28 Sur 41 Sudeste 0 830.3 -0.2 57
2018-09-11 00:00:00 13.8 33 Sur 39 Sur 0 830.5 0.5 76
2018-09-10 23:00:00 13.9 23 Sur 34 Sur 0 830.9 1.3 72
2018-09-10 22:00:00 14.4 10 Sur 36 Sur 0 830.5 0.9 68
2018-09-10 21:00:00 15 13 Sur 31 Sur 0 830 0.5 64
2018-09-10 20:00:00 16.1 12 Nordeste 29 Nordeste 0 829.6 0.1 52
2018-09-10 19:00:00 16.1 6 Este 25 Nordeste 0 829.6 -0.2 56
2018-09-10 18:00:00 17.6 4 Sudoeste 26 Sur 0 829.5 -0.4 52
2018-09-10 17:00:00 18.4 7 Norte 28 Este 0 829.5 -0.7 52
2018-09-10 16:00:00 17.9 9 Este 34 Norte 0 829.8 -0.4 48
2018-09-10 15:00:00 19.3 5 Nordeste 17 Norte 0 829.9 -0.4 46
2018-09-10 14:00:00 16.8 5 Oeste 23 Norte 0 830.2 0.2 56
2018-09-10 13:00:00 16.5 10 Norte 20 Norte 0 830.2 0.8 57
2018-09-10 12:00:00 16.7 9 Norte 19 Nordeste 0 830.3 1.4 62
2018-09-10 11:00:00 16 5 Nordeste 12 Sudeste 0 830 1.3 60
2018-09-10 10:00:00 12.9 8 Sudeste 13 Sudeste 0 829.4 1 66
2018-09-10 09:00:00 10.6 10 Sur 15 Sudeste 0 828.9 0.6 72
2018-09-10 08:00:00 10.9 9 Sudeste 15 Sur 0 828.7 0.4 75
2018-09-10 07:00:00 10.5 4 Sudeste 14 Sur 0 828.4 0.2 74
2018-09-10 06:00:00 11 7 Sur 16 Sur 0 828.3 0.1 73
2018-09-10 05:00:00 10.7 4 Sudoeste 15 Sudeste 0 828.3 -0.4 73
2018-09-10 04:00:00 11 13 Sur 21 Sur 0 828.2 -0.5 70
2018-09-10 03:00:00 12.2 18 Sur 31 Sur 0 828.2 -0.4 59
2018-09-10 02:00:00 12.4 23 Sur 29 Sur 0 828.7 0.2 62
2018-09-10 01:00:00 12.6 21 Sudeste 27 Sur 0 828.7 0.5 68
2018-09-10 00:00:00 12.8 20 Sudeste 29 Sur 0 828.6 1 72
2018-09-09 23:00:00 12.9 9 Este 16 Nordeste 0 828.5 1.6 75
2018-09-09 22:00:00 12.5 7 Sudeste 13 Norte 0 828.2 1.4 71
2018-09-09 21:00:00 13.7 5 Sudeste 17 Nordeste 0 827.6 0.7 60
2018-09-09 20:00:00 14.5 12 Nordeste 21 Nordeste 0 826.9 0 58
2018-09-09 19:00:00 16 2 Este 15 Nordeste 0 826.8 -0.2 55
2018-09-09 18:00:00 16.8 5 Norte 11 Nordeste 0 826.9 -0.4 55
2018-09-09 17:00:00 15.8 8 Nordeste 30 Norte 0 826.9 -0.4 59
2018-09-09 16:00:00 18 15 Nordeste 31 Nordeste 0 827 -0.4 40
2018-09-09 15:00:00 17.7 9 Norte 25 Norte 0 827.3 -0.1 49
2018-09-09 14:00:00 16.4 7 Norte 17 Norte 0 827.3 0.1 57
2018-09-09 13:00:00 15.1 3 Nordeste 14 Norte 0 827.4 0.7 67
2018-09-09 12:00:00 15.2 5 Nordeste 13 Norte 0 827.4 1.1 66
2018-09-09 11:00:00 15 4 Nordeste 9 Norte 0 827.2 1.3 54
2018-09-09 10:00:00 13.7 2 Sudeste 19 Sudoeste 0 826.7 1 51
2018-09-09 09:00:00 12.3 13 Sudeste 25 Sur 0 826.3 0.7 49
2018-09-09 08:00:00 12.1 12 Sur 28 Sur 0 825.9 0.3 50
2018-09-09 07:00:00 11.3 9 Sur 28 Sur 0 825.7 -0.2 54
2018-09-09 06:00:00 11.2 18 Sur 23 Sur 0 825.6 -1.2 71
2018-09-09 05:00:00 10.3 12 Sur 22 Sudoeste 0 825.6 -0.5 80
2018-09-09 04:00:00 8.9 12 Sur 28 Sur 0 825.9 -0.4 89
2018-09-09 03:00:00 8.9 10 Este 37 Oeste 0 826.8 1.2 87
2018-09-09 02:00:00 12.1 23 Sur 33 Sur 0 826.1 0.8 81
2018-09-09 01:00:00 12.6 20 Sur 42 Sudeste 0 826.3 1.3 77
2018-09-09 00:00:00 12.9 24 Sur 50 Sudeste 0 825.6 1 75
2018-09-08 23:00:00 13.2 18 Sur 49 Sudoeste 0 825.3 0.7 73
2018-09-08 22:00:00 12.9 14 Este 41 Sudeste 0 825 0.2 75
2018-09-08 21:00:00 13 10 Sur 27 Sur 0 824.6 -0.1 76
2018-09-08 20:00:00 12.5 0 Calma 33 Oeste 0 824.6 -0.5 85
2018-09-08 19:00:00 13.8 12 Oeste 50 Sudeste 0 824.8 0 71
2018-09-08 18:00:00 13.2 10 Este 42 Sudoeste 0 824.7 -0.2 73
2018-09-08 17:00:00 13.6 14 Sur 42 Sur 0 825.1 0.4 76
2018-09-08 16:00:00 13.9 27 Sur 53 Sudeste 0 824.8 -0.4 71
2018-09-08 15:00:00 15.6 27 Sur 55 Sudoeste 0 824.9 0 60
2018-09-08 14:00:00 13.8 32 Sur 57 Sur 0.2 824.7 0.3 73
2018-09-08 13:00:00 13.6 26 Sur 48 Sudeste 0 825.2 1 78
2018-09-08 12:00:00 16.8 18 Sudeste 39 Sudeste 0 824.9 0.9 58
2018-09-08 11:00:00 14.2 30 Sur 53 Sudeste 0 824.4 1 66
2018-09-08 10:00:00 13 29 Sur 49 Sur 0 824.2 0.7 71
2018-09-08 09:00:00 13.6 19 Sudeste 30 Sudeste 0 824 0.4 53
2018-09-08 08:00:00 12.6 21 Sur 34 Sur 0 823.4 0 55
2018-09-08 07:00:00 12 32 Sur 48 Sur 0 823.5 -0.5 74
2018-09-08 06:00:00 12 33 Sur 48 Sudeste 0 823.6 -1.1 77
2018-09-08 05:00:00 12.4 37 Sudeste 58 Sur 0 823.4 -0.5 70
2018-09-08 04:00:00 11.2 9 Sur 48 Sudeste 0 824 0.4 67
2018-09-08 03:00:00 10.1 38 Sudeste 64 Sudeste 0 824.7 1.1 81
2018-09-08 02:00:00 11.5 43 Sur 63 Sur 0 823.9 -0.1 73
2018-09-08 01:00:00 12.1 44 Sur 58 Sur 0 823.6 0.4 69
2018-09-08 00:00:00 11.8 40 Sudeste 53 Sur 0 823.6 0.5 78
2018-09-07 23:00:00 11.7 37 Sur 58 Sur 0 824 1.3 78
2018-09-07 22:00:00 14 28 Sur 37 Sur 0 823.2 0.6 65
2018-09-07 21:00:00 13.8 6 Sudeste 14 Sur 0 823.1 0.4 55
2018-09-07 20:00:00 15.9 4 Sur 9 Nordeste 0 822.7 -0.1 53
2018-09-07 19:00:00 16.7 4 Noroeste 13 Noroeste 0 822.6 -0.2 50
2018-09-07 18:00:00 17.4 9 Noroeste 15 Noroeste 0 822.7 -0.3 50
2018-09-07 17:00:00 16.4 7 Nordeste 27 Noroeste 0 822.8 -0.5 59
2018-09-07 16:00:00 18.8 10 Norte 25 Norte 0 822.8 -0.7 50
2018-09-07 15:00:00 17.8 9 Nordeste 22 Norte 0 823 -0.6 51
2018-09-07 14:00:00 16.9 8 Norte 15 Norte 0 823.3 -0.1 58
2018-09-07 13:00:00 15.6 6 Norte 15 Norte 0 823.5 0.4 69
2018-09-07 12:00:00 14.3 5 Nordeste 9 Nordeste 0 823.6 0.7 69
2018-09-07 11:00:00 14.8 4 Nordeste 9 Nordeste 0 823.4 0.7 64
2018-09-07 10:00:00 12.6 4 Sudeste 13 Sur 0 823.1 0.7 69
2018-09-07 09:00:00 10.7 6 Sur 20 Sur 0 822.9 0.5 73
2018-09-07 08:00:00 10.1 13 Sur 18 Sur 0 822.7 0.3 76
2018-09-07 07:00:00 9.7 15 Sur 20 Sur 0 822.4 -0.2 78
2018-09-07 06:00:00 10.4 12 Sur 22 Sur 0 822.4 -0.3 74
2018-09-07 05:00:00 9.9 13 Sur 21 Sur 0 822.4 -0.6 76
2018-09-07 04:00:00 10 3 Sur 17 Sur 0 822.6 -0.4 72
2018-09-07 03:00:00 10.1 8 Sur 22 Sudeste 0 822.7 -0.2 71
2018-09-07 02:00:00 10.8 14 Sur 26 Sur 0 823 -0.2 69
2018-09-07 01:00:00 10.4 20 Sur 35 Sudeste 0 823 -0.1 78
2018-09-07 00:00:00 10.4 24 Sudeste 36 Sudeste 0 822.9 0.1 74
2018-09-06 23:00:00 10.5 6 Sudeste 19 Este 0 823.2 0.6 71
2018-09-06 22:00:00 10 11 Sudeste 15 Sudeste 0 823.1 0.6 79
2018-09-06 21:00:00 10.5 8 Sudeste 13 Este 0 822.8 0.4 80
2018-09-06 20:00:00 12.4 4 Este 16 Sur 0 822.6 0.3 74
2018-09-06 19:00:00 12.3 7 Sudeste 14 Oeste 0 822.5 0.2 78
2018-09-06 18:00:00 12.5 6 Norte 19 Norte 0 822.4 -0.1 83
2018-09-06 17:00:00 14.2 9 Nordeste 21 Norte 0 822.3 -0.2 69
2018-09-06 16:00:00 13.2 6 Norte 15 Norte 0 822.3 -0.2 79
2018-09-06 15:00:00 13.4 9 Noroeste 16 Norte 0 822.5 -0.1 77
2018-09-06 14:00:00 13.5 4 Nordeste 12 Nordeste 0.2 822.5 0.4 82
2018-09-06 13:00:00 12 5 Norte 14 Norte 0 822.5 0.7 90
2018-09-06 12:00:00 10.4 4 Nordeste 11 Nordeste 0 822.6 1.1 93
2018-09-06 11:00:00 10.7 4 Nordeste 13 Nordeste 0 822.1 0.9 91
2018-09-06 10:00:00 12 4 Sur 10 Sur 0 821.8 0.8 74
2018-09-06 09:00:00 10.7 10 Sudeste 20 Sur 0 821.5 0.4 78
2018-09-06 08:00:00 10.1 14 Sur 22 Sudeste 0 821.2 0 80
2018-09-06 07:00:00 9.7 7 Sudoeste 13 Sur 0 821 -0.5 81
2018-09-06 06:00:00 9.8 8 Sur 12 Sur 0 821.1 -0.5 79
2018-09-06 05:00:00 9.7 4 Sur 10 Sudeste 0 821.2 -0.7 81
2018-09-06 04:00:00 9.7 4 Sur 15 Sur 0 821.5 -0.7 79
2018-09-06 03:00:00 9.5 10 Sur 13 Sur 0 821.6 -0.9 83
2018-09-06 02:00:00 9.6 7 Sur 12 Sudeste 0 821.9 -0.6 83
2018-09-06 01:00:00 10.1 3 Sudoeste 8 Oeste 0 822.2 0.1 83
2018-09-06 00:00:00 11.2 3 Sudeste 11 Sur 0 822.5 0.7 81
2018-09-05 23:00:00 11.9 6 Sudoeste 16 Sudoeste 0 822.5 1.2 75
2018-09-05 22:00:00 -- -- -- -- -- -- -- -- --
2018-09-05 21:00:00 -- -- -- -- -- -- -- -- --
2018-09-05 20:00:00 -- -- -- -- -- -- -- -- --
2018-09-05 19:00:00 -- -- -- -- -- -- -- -- --
2018-09-05 18:00:00 -- -- -- -- -- -- -- -- --
2018-09-05 17:00:00 -- -- -- -- -- -- -- -- --
2018-09-05 16:00:00 -- -- -- -- -- -- -- -- --
2018-09-05 15:00:00 -- -- -- -- -- -- -- -- --
2018-09-05 14:00:00 -- -- -- -- -- -- -- -- --
2018-09-05 13:00:00 -- -- -- -- -- -- -- -- --
2018-09-05 12:00:00 -- -- -- -- -- -- -- -- --
2018-09-05 11:00:00 -- -- -- -- -- -- -- -- --
2018-09-05 10:00:00 -- -- -- -- -- -- -- -- --
2018-09-05 09:00:00 -- -- -- -- -- -- -- -- --
2018-09-05 08:00:00 -- -- -- -- -- -- -- -- --
2018-09-05 07:00:00 -- -- -- -- -- -- -- -- --
2018-09-05 06:00:00 -- -- -- -- -- -- -- -- --
2018-09-05 05:00:00 -- -- -- -- -- -- -- -- --
2018-09-05 04:00:00 -- -- -- -- -- -- -- -- --
2018-09-05 03:00:00 -- -- -- -- -- -- -- -- --
2018-09-05 02:00:00 -- -- -- -- -- -- -- -- --
2018-09-05 01:00:00 -- -- -- -- -- -- -- -- --
2018-09-05 00:00:00 -- -- -- -- -- -- -- -- --
2018-09-04 23:00:00 -- -- -- -- -- -- -- -- --
2018-09-04 22:00:00 -- -- -- -- -- -- -- -- --
2018-09-04 21:00:00 -- -- -- -- -- -- -- -- --
2018-09-04 20:00:00 -- -- -- -- -- -- -- -- --
2018-09-04 19:00:00 -- -- -- -- -- -- -- -- --
2018-09-04 18:00:00 -- -- -- -- -- -- -- -- --
2018-09-04 17:00:00 -- -- -- -- -- -- -- -- --
2018-09-04 16:00:00 -- -- -- -- -- -- -- -- --
2018-09-04 15:00:00 -- -- -- -- -- -- -- -- --
2018-09-04 14:00:00 -- -- -- -- -- -- -- -- --
2018-09-04 13:00:00 -- -- -- -- -- -- -- -- --
2018-09-04 12:00:00 -- -- -- -- -- -- -- -- --
2018-09-04 11:00:00 -- -- -- -- -- -- -- -- --
2018-09-04 10:00:00 -- -- -- -- -- -- -- -- --
2018-09-04 09:00:00 -- -- -- -- -- -- -- -- --
2018-09-04 08:00:00 -- -- -- -- -- -- -- -- --
2018-09-04 07:00:00 -- -- -- -- -- -- -- -- --
2018-09-04 06:00:00 -- -- -- -- -- -- -- -- --
2018-09-04 05:00:00 -- -- -- -- -- -- -- -- --
2018-09-04 04:00:00 -- -- -- -- -- -- -- -- --
2018-09-04 03:00:00 -- -- -- -- -- -- -- -- --
2018-09-04 02:00:00 -- -- -- -- -- -- -- -- --
2018-09-04 01:00:00 -- -- -- -- -- -- -- -- --
2018-09-04 00:00:00 -- -- -- -- -- -- -- -- --
2018-09-03 23:00:00 -- -- -- -- -- -- -- -- --
2018-09-03 22:00:00 -- -- -- -- -- -- -- -- --
2018-09-03 21:00:00 -- -- -- -- -- -- -- -- --
2018-09-03 20:00:00 -- -- -- -- -- -- -- -- --
2018-09-03 19:00:00 -- -- -- -- -- -- -- -- --
2018-09-03 18:00:00 -- -- -- -- -- -- -- -- --
2018-09-03 17:00:00 -- -- -- -- -- -- -- -- --
2018-09-03 16:00:00 -- -- -- -- -- -- -- -- --
2018-09-03 15:00:00 -- -- -- -- -- -- -- -- --
2018-09-03 14:00:00 -- -- -- -- -- -- -- -- --
2018-09-03 13:00:00 -- -- -- -- -- -- -- -- --
2018-09-03 12:00:00 -- -- -- -- -- -- -- -- --
2018-09-03 11:00:00 -- -- -- -- -- -- -- -- --
2018-09-03 10:00:00 18.8 18 Sudeste 46 Sudeste 0 822.5 -0.4 42
2018-09-03 09:00:00 17.7 18 Sudeste 43 Sudeste 0 822.5 -0.1 42
2018-09-03 08:00:00 17.9 8 Este 33 Sudeste 0.2 822.5 -0.5 40
2018-09-03 07:00:00 14.9 13 Sur 67 Sudeste 0 822.9 -2.2 62
2018-09-03 06:00:00 17.4 14 Sur 35 Noroeste 0 822.6 -0.4 38
2018-09-03 05:00:00 15.2 5 Sudeste 55 Sudoeste 0 823 -0.8 57
2018-09-03 04:00:00 16.5 30 Sudoeste 64 Sudoeste 0.2 825.1 1.1 51
2018-09-03 03:00:00 19.3 27 Sur 38 Sur 0 823 -1.1 33
2018-09-03 02:00:00 20.1 19 Sudeste 30 Sur 0 823.8 -0.7 37
2018-09-03 01:00:00 19.2 16 Sur 26 Sur 0 824 -0.6 37
2018-09-03 00:00:00 19 19 Sudeste 25 Sudeste 0 824.1 -0.4 37
2018-09-02 23:00:00 18.5 12 Sur 15 Sudeste 0 824.5 0 38
2018-09-02 22:00:00 18.5 9 Sudeste 13 Sudeste 0 824.6 0 39
2018-09-02 21:00:00 20 4 Sur 12 Nordeste 0 824.5 -0.1 34
2018-09-02 20:00:00 22.9 9 Norte 26 Norte 0 824.5 -0.5 29
2018-09-02 19:00:00 23.4 6 Sur 33 Norte 0 824.6 -0.6 28
2018-09-02 18:00:00 24.9 9 Norte 23 Noroeste 0 824.6 -1 27
2018-09-02 17:00:00 23.1 6 Noroeste 28 Noroeste 0 825 -1 27
2018-09-02 16:00:00 24.1 6 Nordeste 35 Norte 0 825.2 -1 26
2018-09-02 15:00:00 24.6 12 Norte 48 Norte 0 825.6 -0.9 26
2018-09-02 14:00:00 24.2 13 Noroeste 33 Nordeste 0 826 -0.4 27
2018-09-02 13:00:00 23.3 14 Norte 31 Norte 0 826.2 0.1 28
2018-09-02 12:00:00 23.5 10 Norte 27 Norte 0 826.5 0.6 27
2018-09-02 11:00:00 23.1 5 Oeste 15 Noroeste 0 826.4 0.8 32
2018-09-02 10:00:00 21.6 5 Sur 13 Sur 0 826.1 0.5 35
2018-09-02 09:00:00 18.1 9 Sur 16 Sur 0 825.9 0.2 41
2018-09-02 08:00:00 17.2 9 Sudoeste 14 Sudoeste 0 825.6 -0.3 42
2018-09-02 07:00:00 16.9 11 Sudoeste 18 Sudoeste 0 825.6 -0.6 44
2018-09-02 06:00:00 17.8 9 Sudoeste 18 Sudoeste 0 825.7 -0.7 39
2018-09-02 05:00:00 17.9 9 Sudoeste 19 Sur 0 825.9 -0.9 38
2018-09-02 04:00:00 17.9 13 Sur 19 Sudoeste 0 826.2 -0.6 42
2018-09-02 03:00:00 17.7 18 Sur 22 Sur 0 826.4 -0.4 46
2018-09-02 02:00:00 17.5 15 Sur 24 Sur 0 826.8 -0.2 44
2018-09-02 01:00:00 17.2 9 Sudoeste 18 Sur 0 826.8 -0.3 47
2018-09-02 00:00:00 17.5 12 Sur 23 Sudeste 0 826.8 0.2 42
2018-09-01 23:00:00 16.8 10 Sudeste 16 Sudeste 0 827 0.5 44
2018-09-01 22:00:00 18.2 8 Este 15 Este 0 827.1 0.7 39
2018-09-01 21:00:00 19 5 Este 13 Nordeste 0 826.6 0.2 37
2018-09-01 20:00:00 22.1 7 Norte 25 Nordeste 0 826.5 -0.1 33
2018-09-01 19:00:00 23.1 10 Norte 22 Norte 0 826.4 -0.6 28
2018-09-01 18:00:00 24 11 Noroeste 30 Norte 0 826.4 -0.9 28
2018-09-01 17:00:00 24.3 12 Nordeste 31 Norte 0 826.6 -0.8 27
2018-09-01 16:00:00 23 17 Norte 33 Norte 0 827 -0.6 28
2018-09-01 15:00:00 23.5 11 Noroeste 29 Norte 0 827.3 -0.5 27
2018-09-01 14:00:00 22.9 10 Noroeste 28 Norte 0 827.4 -0.2 30
2018-09-01 13:00:00 22.1 8 Norte 22 Norte 0 827.6 0.4 36
2018-09-01 12:00:00 21 8 Norte 15 Norte 0 827.8 0.9 41
2018-09-01 11:00:00 20.9 4 Sudeste 9 Sudeste 0 827.6 0.8 36
2018-09-01 10:00:00 18.6 5 Sudeste 13 Sudeste 0 827.2 0.6 37
2018-09-01 09:00:00 15.4 8 Sur 16 Sur 0 826.9 0.3 42
2018-09-01 08:00:00 13.6 11 Sur 15 Sudeste 0 826.8 0 51
2018-09-01 07:00:00 13.8 4 Sur 11 Sur 0 826.6 -0.4 49
2018-09-01 06:00:00 14 5 Sur 10 Sudeste 0 826.6 -0.6 48
2018-09-01 05:00:00 14.4 6 Sur 13 Sudeste 0 826.8 -0.6 47
2018-09-01 04:00:00 14.3 9 Sur 13 Sur 0 827 -0.5 47
2018-09-01 03:00:00 13.8 7 Sur 17 Sudeste 0 827.2 -0.3 48
2018-09-01 02:00:00 13.9 7 Sur 13 Sur 0 827.4 -0.3 50
2018-09-01 01:00:00 14.1 5 Sur 12 Sur 0 827.5 0 46
2018-09-01 00:00:00 14 5 Sur 11 Sudoeste 0 827.5 0.4 53
2018-08-31 23:00:00 14.4 3 Sudeste 13 Sudeste 0 827.7 0.9 57
2018-08-31 22:00:00 14.2 9 Sudeste 14 Sudeste 0 827.5 0.8 61
2018-08-31 21:00:00 16.8 4 Nordeste 17 Norte 0 827.1 0.3 42
2018-08-31 20:00:00 19.3 12 Norte 31 Norte 0 826.8 -0.1 33
2018-08-31 19:00:00 20.9 13 Norte 29 Norte 0 826.7 -0.4 31
2018-08-31 18:00:00 21.6 14 Norte 35 Norte 0 826.8 -0.4 32
2018-08-31 17:00:00 21.7 14 Norte 36 Norte 0 826.9 -0.4 34
2018-08-31 16:00:00 21.1 16 Norte 36 Norte 0 827.1 -0.3 40
2018-08-31 15:00:00 21 17 Norte 36 Norte 0 827.2 -0.3 36
2018-08-31 14:00:00 20.9 17 Norte 33 Norte 0 827.3 -0.1 42
2018-08-31 13:00:00 20.1 13 Norte 34 Norte 0 827.4 0.3 44
2018-08-31 12:00:00 19.3 9 Norte 22 Norte 0 827.5 0.7 46
2018-08-31 11:00:00 19.3 6 Nordeste 13 Nordeste 0 827.4 0.8 48
2018-08-31 10:00:00 17.8 4 Nordeste 11 Nordeste 0 827.1 0.7 49
2018-08-31 09:00:00 15 7 Sur 13 Sudeste 0 826.8 0.4 54
2018-08-31 08:00:00 13.4 8 Sur 14 Sur 0 826.6 0 60
2018-08-31 07:00:00 12.7 4 Sur 10 Sudoeste 0 826.4 -0.3 62
2018-08-31 06:00:00 12.8 5 Sur 12 Sur 0 826.4 -0.7 64
2018-08-31 05:00:00 13.8 4 Sudoeste 9 Oeste 0 826.6 -0.7 59
2018-08-31 04:00:00 15 4 Sudoeste 12 Sudoeste 0 826.7 -0.6 53
2018-08-31 03:00:00 14.1 4 Sudoeste 9 Sudoeste 0 827.1 -0.5 57
2018-08-31 02:00:00 15.1 5 Sudoeste 9 Sur 0 827.3 -0.5 54
2018-08-31 01:00:00 14.3 6 Sur 12 Sudeste 0 827.3 -0.3 58
2018-08-31 00:00:00 14.7 6 Sur 14 Sudeste 0 827.6 0.4 56
2018-08-30 23:00:00 15.3 6 Sudeste 14 Sudeste 0 827.8 0.9 55
2018-08-30 22:00:00 16 7 Sudeste 13 Este 0 827.6 0.7 53
2018-08-30 21:00:00 17.6 6 Este 19 Norte 0 827.2 0.4 47
2018-08-30 20:00:00 20.3 10 Nordeste 22 Norte 0 826.9 -0.2 39
2018-08-30 19:00:00 21.7 8 Norte 35 Noroeste 0 826.9 -0.4 32
2018-08-30 18:00:00 22.3 9 Noroeste 33 Norte 0 826.8 -0.8 31
2018-08-30 17:00:00 22.7 9 Noroeste 30 Norte 0 827.1 -0.3 31
2018-08-30 16:00:00 22.2 11 Norte 25 Noroeste 0 827.3 -0.4 33
2018-08-30 15:00:00 21 9 Oeste 31 Noroeste 0 827.6 -0.3 34
2018-08-30 14:00:00 20.7 9 Noroeste 27 Norte 0 827.4 -0.3 40
2018-08-30 13:00:00 20.4 5 Norte 15 Oeste 0 827.7 0.3 50
2018-08-30 12:00:00 20.3 7 Nordeste 15 Norte 0 827.9 0.8 54
2018-08-30 11:00:00 19.5 4 Nordeste 10 Nordeste 0 827.7 1 51
2018-08-30 10:00:00 18.2 8 Noroeste 27 Sudoeste 0 827.4 0.9 49
2018-08-30 09:00:00 15.5 14 Sur 25 Sudoeste 0 827.1 0.6 53
2018-08-30 08:00:00 14.7 20 Sur 26 Sur 0 826.7 0.1 56
2018-08-30 07:00:00 14.9 21 Sur 27 Sur 0 826.5 -0.3 61
2018-08-30 06:00:00 14.5 10 Sur 28 Sur 0 826.5 -0.7 58
2018-08-30 05:00:00 15.4 23 Sur 40 Sur 0 826.6 -0.6 59
2018-08-30 04:00:00 14.6 32 Sur 45 Sur 0 826.8 -0.6 73
2018-08-30 03:00:00 15.4 22 Sur 33 Sur 0 827.2 0.2 65
2018-08-30 02:00:00 15.9 26 Sur 35 Sur 0 827.2 0 65
2018-08-30 01:00:00 15.6 28 Sudeste 40 Sudeste 0 827.4 0.3 67
2018-08-30 00:00:00 15.7 33 Sudeste 53 Sudeste 0 827 0.1 66
2018-08-29 23:00:00 15 30 Sur 50 Sur 0 827.2 0.8 72
2018-08-29 22:00:00 16.3 21 Sudeste 33 Sudeste 0 827.1 0.9 64
2018-08-29 21:00:00 17.3 6 Este 17 Norte 0 826.9 0.8 53
2018-08-29 20:00:00 19.5 6 Norte 12 Nordeste 0 826.4 0.3 44
2018-08-29 19:00:00 20.2 5 Nordeste 14 Norte 0 826.2 0.1 41
2018-08-29 18:00:00 20.7 9 Norte 26 Norte 0 826.1 -0.1 43
2018-08-29 17:00:00 20.5 10 Norte 20 Norte 0 826.1 -0.3 41
2018-08-29 16:00:00 21.4 5 Este 21 Nordeste 0 826.1 -0.5 40
2018-08-29 15:00:00 20.6 13 Norte 28 Nordeste 0 826.2 -0.4 43
2018-08-29 14:00:00 20.1 6 Nordeste 22 Nordeste 0 826.4 0.2 45
2018-08-29 13:00:00 18.7 4 Nordeste 18 Norte 0 826.6 0.9 54
2018-08-29 12:00:00 19 4 Nordeste 16 Nordeste 0 826.6 1.2 51
2018-08-29 11:00:00 17.6 9 Nordeste 17 Sur 0 826.2 1.1 59
2018-08-29 10:00:00 18.6 4 Sur 19 Sudoeste 0 825.7 0.9 43
2018-08-29 09:00:00 15.2 12 Sur 22 Sur 0 825.4 0.6 53
2018-08-29 08:00:00 14.9 12 Sur 30 Sur 0 825.1 0.3 53
2018-08-29 07:00:00 13.8 9 Sudoeste 13 Sur 0 824.8 -0.2 55
2018-08-29 06:00:00 13.6 8 Sudoeste 14 Sur 0 824.8 -0.4 58
2018-08-29 05:00:00 13.7 12 Sudeste 15 Sudeste 0 824.8 -0.4 60
2018-08-29 04:00:00 14 9 Sudoeste 20 Sudoeste 0 825 -0.1 61
2018-08-29 03:00:00 14.1 12 Sudoeste 27 Sur 0 825.2 0.2 61
2018-08-29 02:00:00 15.1 8 Sur 29 Noroeste 0 825.2 0.2 59
2018-08-29 01:00:00 16.1 8 Sudoeste 32 Noroeste 0 825.1 0.2 58
2018-08-29 00:00:00 16.9 10 Este 37 Noroeste 0 825 0.5 53
2018-08-28 23:00:00 17.4 9 Sur 34 Noroeste 0 825 1.2 46
2018-08-28 22:00:00 18 6 Este 30 Norte 0 824.9 1.1 37
2018-08-28 21:00:00 19.3 10 Noroeste 37 Sur 0 824.5 0.7 28
2018-08-28 20:00:00 21.4 18 Sudoeste 62 Oeste 0 823.8 -0.4 31
2018-08-28 19:00:00 22.4 21 Sudoeste 62 Oeste 0 823.8 -0.6 28
2018-08-28 18:00:00 22.7 19 Oeste 67 Oeste 0 823.8 -1 28
2018-08-28 17:00:00 22.7 19 Oeste 63 Oeste 0 824.2 -0.8 27
2018-08-28 16:00:00 22.6 19 Sudoeste 66 Oeste 0 824.4 -0.9 29
2018-08-28 15:00:00 22.4 19 Noroeste 57 Oeste 0 824.8 -0.5 33
2018-08-28 14:00:00 22.1 15 Oeste 60 Sudoeste 0 825 -0.1 37
2018-08-28 13:00:00 20.7 17 Sur 48 Sur 0 825.3 0.6 40
2018-08-28 12:00:00 21 14 Sudoeste 44 Sudeste 0 825.3 0.6 40
2018-08-28 11:00:00 20.4 19 Sur 42 Sudoeste 0 825.1 0.3 42
2018-08-28 10:00:00 19.7 22 Sur 48 Sudoeste 0 824.7 0.1 41
2018-08-28 09:00:00 18 18 Sudoeste 48 Sudoeste 0 824.7 1 45
2018-08-28 08:00:00 17.3 19 Sur 43 Sur 0 824.8 1.4 52
2018-08-28 07:00:00 17.4 13 Norte 70 Oeste 0 824.6 0 56
2018-08-28 06:00:00 18.7 20 Noroeste 64 Oeste 0 823.7 -1.3 45
2018-08-28 05:00:00 19.1 29 Noroeste 59 Oeste 0 823.4 -2.3 45
2018-08-28 04:00:00 20.2 14 Este 49 Este 0 824.6 -1.4 28
2018-08-28 03:00:00 21.2 17 Este 45 Este 0 825 -1.2 26
2018-08-28 02:00:00 21.8 16 Este 40 Este 0 825.7 -0.6 21
2018-08-28 01:00:00 21.2 12 Sudeste 32 Sur 0 826 -0.4 23
2018-08-28 00:00:00 21 9 Sur 20 Sudoeste 0 826.2 0.3 24
2018-08-27 23:00:00 20.6 12 Sur 26 Sur 0 826.3 0.4 25
2018-08-27 22:00:00 20 14 Sur 21 Sur 0 826.4 0.1 27
2018-08-27 21:00:00 20.8 10 Sudoeste 24 Norte 0 825.9 -0.2 25
2018-08-27 20:00:00 23.1 8 Norte 35 Noroeste 0 825.9 -0.1 21
2018-08-27 19:00:00 24.5 13 Sudoeste 31 Sudoeste 0 826.3 0.3 22
2018-08-27 18:00:00 25.1 21 Sudoeste 32 Sudoeste 0 826.1 0.1 23
2018-08-27 17:00:00 27 7 Sudoeste 34 Sudoeste 0 826 0 22
2018-08-27 16:00:00 26.7 12 Sur 28 Sudeste 0 826 -0.1 22
2018-08-27 15:00:00 26 9 Sur 28 Sudoeste 0 826 0 21
2018-08-27 14:00:00 25.4 8 Sudoeste 24 Oeste 0 826 0.4 22
2018-08-27 13:00:00 24.4 14 Sudoeste 24 Sudoeste 0 826.1 0.8 25
2018-08-27 12:00:00 23 7 Norte 16 Sur 0 826 0.9 29
2018-08-27 11:00:00 22.3 8 Sudeste 21 Sudeste 0 825.6 0.6 29
2018-08-27 10:00:00 20 15 Sur 22 Sur 0 825.3 0.7 34
2018-08-27 09:00:00 16 12 Sur 15 Sur 0 825.1 0.6 42
2018-08-27 08:00:00 15.4 8 Sudoeste 13 Sur 0 825 0.4 43
2018-08-27 07:00:00 15 6 Sudoeste 12 Sudoeste 0 824.6 -0.1 47
2018-08-27 06:00:00 14.9 6 Sudoeste 13 Sudoeste 0 824.5 -0.4 48
2018-08-27 05:00:00 15.3 8 Sudoeste 19 Sur 0 824.6 -0.5 46
2018-08-27 04:00:00 15.7 10 Sur 20 Sur 0 824.7 -0.4 44
2018-08-27 03:00:00 17 12 Sur 22 Sur 0 824.9 -0.4 39
2018-08-27 02:00:00 16.5 13 Sudoeste 18 Sudoeste 0 825.1 -0.2 42
2018-08-27 01:00:00 16.8 3 Sur 12 Sudoeste 0 825.1 0 41
2018-08-27 00:00:00 15.8 8 Sudoeste 11 Sudoeste 0 825.3 0.6 47
2018-08-26 23:00:00 16.2 4 Sudoeste 8 Sudoeste 0 825.3 0.9 46
2018-08-26 22:00:00 16.7 3 Sur 10 Nordeste 0 825.1 0.8 43
2018-08-26 21:00:00 19 4 Oeste 29 Noroeste 0 824.7 0.6 37
2018-08-26 20:00:00 21.1 9 Nordeste 28 Norte 0 824.4 0.1 30
2018-08-26 19:00:00 22.1 12 Norte 34 Norte 0 824.3 -0.2 28
2018-08-26 18:00:00 22.2 13 Norte 36 Norte 0 824.1 -0.5 26
2018-08-26 17:00:00 23.1 8 Noroeste 32 Norte 0 824.3 -0.4 27
2018-08-26 16:00:00 22 12 Noroeste 31 Norte 0 824.5 -0.2 30
2018-08-26 15:00:00 21.1 13 Norte 29 Norte 0 824.6 -0.1 33
2018-08-26 14:00:00 21.1 9 Norte 22 Norte 0 824.7 0.2 34
2018-08-26 13:00:00 20.1 7 Noroeste 22 Noroeste 0 824.7 0.6 41
2018-08-26 12:00:00 19.9 5 Norte 14 Nordeste 0 824.7 0.9 44
2018-08-26 11:00:00 17.7 5 Nordeste 11 Nordeste 0 824.5 0.9 51
2018-08-26 10:00:00 16.8 8 Sudeste 11 Sudeste 0 824.1 0.7 50
2018-08-26 09:00:00 13.3 6 Sudoeste 13 Sudoeste 0 823.8 0.5 58
2018-08-26 08:00:00 12.4 7 Sur 13 Sur 0 823.6 0.3 59
2018-08-26 07:00:00 12 6 Sudoeste 12 Sur 0 823.4 -0.2 60
2018-08-26 06:00:00 11 8 Sur 11 Sur 0 823.3 -0.5 67
2018-08-26 05:00:00 11.6 4 Sur 13 Sur 0 823.3 -0.7 62
2018-08-26 04:00:00 12.6 5 Sur 13 Sudeste 0 823.6 -0.5 53
2018-08-26 03:00:00 11.7 7 Sur 10 Sudeste 0 823.8 -0.5 50
2018-08-26 02:00:00 12.7 4 Sudoeste 9 Sudoeste 0 824 -0.3 48
2018-08-26 01:00:00 12.3 5 Sudoeste 10 Sur 0 824.1 -0.1 51
2018-08-26 00:00:00 12.1 6 Sur 14 Sur 0 824.3 0.7 51
2018-08-25 23:00:00 12.1 5 Sudeste 14 Sur 0 824.3 0.9 51
2018-08-25 22:00:00 11.8 6 Sudeste 14 Nordeste 0 824.2 0.8 57
2018-08-25 21:00:00 13.7 6 Norte 22 Norte 0 823.6 0 46
2018-08-25 20:00:00 16.7 12 Norte 28 Norte 0 823.4 0 42
2018-08-25 19:00:00 18.6 8 Norte 32 Norte 0 823.4 -0.5 35
2018-08-25 18:00:00 19 13 Noroeste 43 Norte 0 823.6 -0.6 34
2018-08-25 17:00:00 20.2 11 Norte 32 Norte 0 823.4 -1 31
2018-08-25 16:00:00 19.8 13 Noroeste 40 Norte 0 823.9 -0.5 22
2018-08-25 15:00:00 19.6 14 Noroeste 37 Norte 0 824.2 -0.6 33
2018-08-25 14:00:00 17.9 14 Noroeste 30 Norte 0 824.4 -0.2 36
2018-08-25 13:00:00 18.7 10 Norte 26 Norte 0 824.4 -0.1 33
2018-08-25 12:00:00 17.7 8 Nordeste 21 Nordeste 0 824.8 0.6 42
2018-08-25 11:00:00 16.8 6 Nordeste 15 Oeste 0 824.6 0.5 45
2018-08-25 10:00:00 16 2 Este 15 Sur 0 824.5 0.3 46
2018-08-25 09:00:00 12.7 8 Sur 14 Sudoeste 0 824.2 -0.1 52
2018-08-25 08:00:00 12.5 6 Sur 12 Sudoeste 0 824.1 -0.5 51
2018-08-25 07:00:00 11.9 4 Sudoeste 9 Sudoeste 0 824.2 -0.7 48
2018-08-25 06:00:00 12.2 4 Sudoeste 10 Sur 0 824.3 -0.8 46
2018-08-25 05:00:00 11.6 5 Sudoeste 10 Sudoeste 0 824.6 -1 49
2018-08-25 04:00:00 11.9 3 Sudeste 10 Sur 0 824.9 -0.9 48
2018-08-25 03:00:00 12.4 3 Sudoeste 8 Sudeste 0 825.1 -0.8 46
2018-08-25 02:00:00 12.5 2 Sur 9 Sur 0 825.6 -0.7 47
2018-08-25 01:00:00 12.9 3 Sudeste 10 Nordeste 0 825.8 -0.5 49
2018-08-25 00:00:00 13.2 3 Sudoeste 11 Sudeste 0 825.9 -0.1 51
2018-08-24 23:00:00 12.8 8 Sudeste 13 Sudeste 0 826.3 0.4 60
2018-08-24 22:00:00 12.9 8 Sudeste 13 Sudeste 0 826.3 0.2 62
2018-08-24 21:00:00 14.7 3 Nordeste 30 Norte 0 826 -0.3 55
2018-08-24 20:00:00 17.3 15 Nordeste 31 Nordeste 0 825.9 -0.5 47
2018-08-24 19:00:00 18.3 15 Norte 43 Norte 0 826.1 -0.7 37
2018-08-24 18:00:00 19.7 13 Norte 46 Norte 0 826.3 -1 31
2018-08-24 17:00:00 19.9 16 Noroeste 43 Norte 0 826.4 -1 30
2018-08-24 16:00:00 20.4 14 Norte 43 Norte 0 826.8 -0.7 25
2018-08-24 15:00:00 20 15 Norte 37 Noroeste 0 827.3 -0.3 25
2018-08-24 14:00:00 19.7 13 Norte 31 Norte 0 827.4 -0.1 37
2018-08-24 13:00:00 18.6 12 Norte 25 Nordeste 0 827.5 0.2 37
2018-08-24 12:00:00 17.9 12 Norte 28 Nordeste 0 827.6 0.6 47
2018-08-24 11:00:00 17.3 7 Oeste 13 Oeste 0 827.5 0.9 56
2018-08-24 10:00:00 17 5 Noroeste 13 Oeste 0 827.3 0.8 64
2018-08-24 09:00:00 13.9 4 Sudoeste 15 Sudoeste 0 827 0.5 58
2018-08-24 08:00:00 14 12 Sudoeste 17 Sudoeste 0 826.6 0 70
2018-08-24 07:00:00 14.3 8 Sudoeste 28 Sudoeste 0 826.5 -0.4 60
2018-08-24 06:00:00 15 13 Sur 26 Sudoeste 0 826.5 -0.3 59
2018-08-24 05:00:00 15.2 9 Sur 21 Sudoeste 0 826.6 -0.5 57
2018-08-24 04:00:00 15 6 Sudoeste 18 Sur 0 826.9 -0.7 54
2018-08-24 03:00:00 16.2 10 Sudoeste 30 Sudoeste 0 826.8 -1.1 51
2018-08-24 02:00:00 16.3 21 Sur 28 Sur 0 827.1 -0.8 50
2018-08-24 01:00:00 15.9 4 Sudoeste 13 Sur 0 827.6 -0.1 50
2018-08-24 00:00:00 16.6 8 Sudeste 13 Sudeste 0 827.9 0.8 46
2018-08-23 23:00:00 16.4 8 Sudeste 15 Este 0 827.9 1.4 40
2018-08-23 22:00:00 16.4 9 Sudeste 13 Sudeste 0 827.7 1.5 50
2018-08-23 21:00:00 17.7 6 Este 17 Nordeste 0 827.1 1 52
2018-08-23 20:00:00 20.2 12 Norte 30 Norte 0 826.5 0.1 49
2018-08-23 19:00:00 21.5 20 Norte 45 Nordeste 0 826.2 -0.4 36
2018-08-23 18:00:00 22.7 19 Nordeste 36 Nordeste 0 826.1 -0.9 29
2018-08-23 17:00:00 23.2 16 Norte 34 Nordeste 0 826.4 -0.8 27
2018-08-23 16:00:00 22.1 11 Norte 31 Norte 0 826.6 -0.9 34
2018-08-23 15:00:00 22.3 13 Norte 33 Norte 0 827 -0.4 38
2018-08-23 14:00:00 21.6 12 Norte 27 Norte 0 827.2 0.2 38
2018-08-23 13:00:00 21.4 9 Noroeste 25 Norte 0 827.5 0.8 39
2018-08-23 12:00:00 21.2 5 Oeste 18 Noroeste 0 827.4 0.9 38
2018-08-23 11:00:00 20.6 4 Oeste 13 Oeste 0 827 0.7 37
2018-08-23 10:00:00 19 8 Noroeste 13 Noroeste 0 826.7 0.7 41
2018-08-23 09:00:00 16.6 11 Sudoeste 16 Sudoeste 0 826.5 0.5 44
2018-08-23 08:00:00 15.9 9 Sudoeste 17 Sur 0 826.3 0.1 46
2018-08-23 07:00:00 14.4 12 Sur 18 Sudoeste 0 826 -0.5 52
2018-08-23 06:00:00 15.2 12 Sudoeste 18 Sur 0 826 -0.6 51
2018-08-23 05:00:00 14.3 12 Sudoeste 21 Sudoeste 0 826.2 -0.8 54
2018-08-23 04:00:00 15.4 8 Sur 21 Sudoeste 0 826.5 -0.8 49
2018-08-23 03:00:00 16.2 8 Sur 18 Sudoeste 0 826.6 -0.8 44
2018-08-23 02:00:00 16.1 6 Sur 12 Sur 0 827 -0.5 48
2018-08-23 01:00:00 16.1 8 Sur 12 Sur 0 827.3 0 49
2018-08-23 00:00:00 15.6 9 Sur 17 Oeste 0 827.4 0.8 53